Westfield, Wisconsin
Current Conditions -  °F | °C
As of 5:16 AM on Wednesday 22 Oct 2014 (Local Time) from KY50 Reporting Station
Broken Clouds Broken Clouds  
Wind Chill: 25°   Ceiling: 100
Heat Index: 25°   Visibility: 10mi
Dew Point: 23°   Wind: 0mph
Humidity: 93%   Direction: NA
Pressure: 30.33"   Gusts: NA
Location:  43.88°N, 89.49°W
Report Text: KY50 221016Z AUTO 00000KT 10SM BKN001 M04/M05 A3033 RMK AO2 TSNO
Loading
Personal Weather Stations






























Interactive Weather Map
Tropical Storm Tracking
New forecast layout! Learn more

10-Day Weather Forecast

Advertisements
Track Severe Weather on mobile